createdAt,value
2017-12-13T00:00:22.293Z,1001.99
2017-12-13T00:01:22.283Z,1001.98
2017-12-13T00:02:22.275Z,1001.97
2017-12-13T00:03:22.265Z,1001.93
2017-12-13T00:04:22.260Z,1001.97
2017-12-13T00:05:22.249Z,1001.96
2017-12-13T00:06:22.242Z,1001.96
2017-12-13T00:07:22.233Z,1001.92
2017-12-13T00:08:22.223Z,1001.95
2017-12-13T00:09:22.215Z,1001.92
2017-12-13T00:10:22.207Z,1001.91
2017-12-13T00:11:22.197Z,1001.92
2017-12-13T00:12:22.189Z,1001.90
2017-12-13T00:13:22.181Z,1001.93
2017-12-13T00:14:22.173Z,1001.94
2017-12-13T00:15:22.166Z,1001.84
2017-12-13T00:16:22.155Z,1001.86
2017-12-13T00:17:22.146Z,1001.84
2017-12-13T00:18:22.138Z,1001.83
2017-12-13T00:19:22.128Z,1001.78
2017-12-13T00:20:22.118Z,1001.78
2017-12-13T00:21:22.111Z,1001.78
2017-12-13T00:22:22.101Z,1001.82
2017-12-13T00:23:22.092Z,1001.83
2017-12-13T00:24:22.084Z,1001.80
2017-12-13T00:25:22.075Z,1001.76
2017-12-13T00:26:22.067Z,1001.75
2017-12-13T00:27:22.057Z,1001.72
2017-12-13T00:28:22.048Z,1001.75
2017-12-13T00:29:22.041Z,1001.72
2017-12-13T00:30:22.031Z,1001.74
2017-12-13T00:31:22.022Z,1001.71
2017-12-13T00:32:22.014Z,1001.71
2017-12-13T00:33:22.013Z,1001.72
2017-12-13T00:34:21.999Z,1001.74
2017-12-13T00:35:21.986Z,1001.75
2017-12-13T00:36:21.983Z,1001.74
2017-12-13T00:37:21.970Z,1001.77
2017-12-13T00:38:21.964Z,1001.77
2017-12-13T00:39:21.951Z,1001.74
2017-12-13T00:40:21.942Z,1001.72
2017-12-13T00:41:21.934Z,1001.68
2017-12-13T00:42:21.924Z,1001.64
2017-12-13T00:43:21.915Z,1001.64
2017-12-13T00:44:21.906Z,1001.64
2017-12-13T00:45:21.898Z,1001.57
2017-12-13T00:46:21.889Z,1001.60
2017-12-13T00:47:21.927Z,1001.59
2017-12-13T00:48:21.871Z,1001.54
2017-12-13T00:49:21.862Z,1001.59
2017-12-13T00:50:21.852Z,1001.59
2017-12-13T00:51:21.844Z,1001.55
2017-12-13T00:52:21.835Z,1001.50
2017-12-13T00:53:21.826Z,1001.48
2017-12-13T00:54:21.824Z,1001.45
2017-12-13T00:55:21.807Z,1001.49
2017-12-13T00:56:21.798Z,1001.44
2017-12-13T00:57:21.790Z,1001.47
2017-12-13T00:58:21.780Z,1001.42
2017-12-13T00:59:21.770Z,1001.42
2017-12-13T01:00:21.762Z,1001.39
2017-12-13T01:01:21.761Z,1001.37
2017-12-13T01:02:21.744Z,1001.37
2017-12-13T01:03:21.735Z,1001.36
2017-12-13T01:04:21.774Z,1001.37
2017-12-13T01:05:21.716Z,1001.35
2017-12-13T01:06:21.707Z,1001.36
2017-12-13T01:07:21.698Z,1001.39
2017-12-13T01:08:21.690Z,1001.38
2017-12-13T01:09:21.682Z,1001.34
2017-12-13T01:10:21.673Z,1001.28
2017-12-13T01:11:21.661Z,1001.29
2017-12-13T01:12:21.653Z,1001.26
2017-12-13T01:13:21.643Z,1001.26
2017-12-13T01:14:21.634Z,1001.25
2017-12-13T01:15:21.627Z,1001.24
2017-12-13T01:16:21.617Z,1001.29
2017-12-13T01:17:21.607Z,1001.24
2017-12-13T01:18:21.598Z,1001.23
2017-12-13T01:19:21.588Z,1001.25
2017-12-13T01:20:21.579Z,1001.26
2017-12-13T01:21:21.571Z,1001.28
2017-12-13T01:22:21.562Z,1001.23
2017-12-13T01:23:21.554Z,1001.25
2017-12-13T01:24:21.545Z,1001.26
2017-12-13T01:25:21.536Z,1001.27
2017-12-13T01:26:21.526Z,1001.28
2017-12-13T01:27:21.515Z,1001.26
2017-12-13T01:28:21.507Z,1001.25
2017-12-13T01:29:21.498Z,1001.20
2017-12-13T01:30:21.489Z,1001.25
2017-12-13T01:31:21.480Z,1001.22
2017-12-13T01:32:21.470Z,1001.26
2017-12-13T01:33:21.461Z,1001.22
2017-12-13T01:34:21.452Z,1001.21
2017-12-13T01:35:21.442Z,1001.15
2017-12-13T01:36:21.433Z,1001.13
2017-12-13T01:37:21.425Z,1001.11
2017-12-13T01:38:21.416Z,1001.13
2017-12-13T01:39:21.407Z,1001.11
2017-12-13T01:40:21.397Z,1001.07
2017-12-13T01:41:21.387Z,1001.08
2017-12-13T01:42:21.379Z,1001.03
2017-12-13T01:43:21.369Z,1001.05
2017-12-13T01:44:21.360Z,1001.05
2017-12-13T01:45:21.350Z,1001.05
2017-12-13T01:46:21.341Z,1001.04
2017-12-13T01:47:21.331Z,1000.97
2017-12-13T01:48:21.323Z,1001.01
2017-12-13T01:49:21.313Z,1000.98
2017-12-13T01:50:21.306Z,1001.00
2017-12-13T01:51:21.295Z,1000.99
2017-12-13T01:52:21.285Z,1000.95
2017-12-13T01:53:21.276Z,1000.94
2017-12-13T01:54:21.267Z,1000.91
2017-12-13T01:55:21.258Z,1000.92
2017-12-13T01:56:21.249Z,1000.88
2017-12-13T01:57:21.241Z,1000.84
2017-12-13T01:58:21.232Z,1000.84
2017-12-13T01:59:21.221Z,1000.86
2017-12-13T02:00:21.211Z,1000.79
2017-12-13T02:01:21.202Z,1000.82
2017-12-13T02:02:21.193Z,1000.83
2017-12-13T02:03:21.184Z,1000.82
2017-12-13T02:04:21.174Z,1000.84
2017-12-13T02:05:21.166Z,1000.79
2017-12-13T02:06:27.434Z,1000.79
2017-12-13T02:07:21.145Z,1000.76
2017-12-13T02:08:21.137Z,1000.71
2017-12-13T02:09:21.128Z,1000.66
2017-12-13T02:10:21.120Z,1000.65
2017-12-13T02:11:21.109Z,1000.58
2017-12-13T02:12:21.099Z,1000.61
2017-12-13T02:13:21.092Z,1000.58
2017-12-13T02:14:21.082Z,1000.59
2017-12-13T02:15:21.072Z,1000.57
2017-12-13T02:16:21.063Z,1000.56
2017-12-13T02:17:21.053Z,1000.58
2017-12-13T02:18:21.045Z,1000.52
2017-12-13T02:19:21.035Z,1000.55
2017-12-13T02:20:21.025Z,1000.48
2017-12-13T02:21:21.015Z,1000.50
2017-12-13T02:22:33.743Z,1000.50
2017-12-13T02:23:20.998Z,1000.48
2017-12-13T02:24:20.988Z,1000.50
2017-12-13T02:25:20.978Z,1000.53
2017-12-13T02:26:20.969Z,1000.53
2017-12-13T02:27:20.958Z,1000.55
2017-12-13T02:28:20.951Z,1000.55
2017-12-13T02:29:20.941Z,1000.52
2017-12-13T02:30:20.933Z,1000.49
2017-12-13T02:31:20.922Z,1000.38
2017-12-13T02:32:20.913Z,1000.37
2017-12-13T02:33:20.904Z,1000.35
2017-12-13T02:34:20.894Z,1000.30
2017-12-13T02:35:20.885Z,1000.30
2017-12-13T02:36:20.875Z,1000.27
2017-12-13T02:37:20.866Z,1000.27
2017-12-13T02:38:20.857Z,1000.29
2017-12-13T02:39:20.846Z,1000.28
2017-12-13T02:40:20.838Z,1000.29
2017-12-13T02:41:20.829Z,1000.31
2017-12-13T02:42:20.819Z,1000.28
2017-12-13T02:43:20.809Z,1000.27
2017-12-13T02:44:20.799Z,1000.28
2017-12-13T02:45:20.791Z,1000.24
2017-12-13T02:46:20.780Z,1000.25
2017-12-13T02:47:20.770Z,1000.24
2017-12-13T02:48:20.769Z,1000.18
2017-12-13T02:49:20.804Z,1000.13
2017-12-13T02:50:20.744Z,1000.13
2017-12-13T02:51:20.734Z,1000.15
2017-12-13T02:52:20.723Z,1000.14
2017-12-13T02:53:20.718Z,1000.11
2017-12-13T02:54:20.707Z,1000.13
2017-12-13T02:55:20.697Z,1000.09
2017-12-13T02:56:20.686Z,1000.05
2017-12-13T02:57:20.677Z,1000.00
2017-12-13T02:58:20.669Z,999.97
2017-12-13T02:59:20.658Z,999.94
2017-12-13T03:00:20.651Z,999.96
2017-12-13T03:01:20.641Z,999.95
2017-12-13T03:02:20.632Z,999.94
2017-12-13T03:03:20.621Z,999.91
2017-12-13T03:04:20.616Z,999.97
2017-12-13T03:05:20.603Z,999.95
2017-12-13T03:06:20.597Z,999.98
2017-12-13T03:07:20.586Z,999.97
2017-12-13T03:08:20.575Z,999.94
2017-12-13T03:09:20.565Z,999.94
2017-12-13T03:10:20.555Z,999.94
2017-12-13T03:11:20.545Z,999.87
2017-12-13T03:12:20.537Z,999.90
2017-12-13T03:13:20.528Z,999.85
2017-12-13T03:14:20.519Z,999.87
2017-12-13T03:15:20.508Z,999.86
2017-12-13T03:16:20.499Z,999.80
2017-12-13T03:17:20.539Z,999.86
2017-12-13T03:18:20.480Z,999.80
2017-12-13T03:19:20.477Z,999.79
2017-12-13T03:20:20.462Z,999.73
2017-12-13T03:21:20.454Z,999.72
2017-12-13T03:22:20.443Z,999.75
2017-12-13T03:23:20.433Z,999.75
2017-12-13T03:24:20.425Z,999.72
2017-12-13T03:25:20.415Z,999.73
2017-12-13T03:26:20.406Z,999.71
2017-12-13T03:27:20.399Z,999.74
2017-12-13T03:28:20.387Z,999.73
2017-12-13T03:29:20.378Z,999.75
2017-12-13T03:30:20.372Z,999.69
2017-12-13T03:31:20.360Z,999.67
2017-12-13T03:32:20.350Z,999.63
2017-12-13T03:33:20.341Z,999.65
2017-12-13T03:34:20.332Z,999.61
2017-12-13T03:35:20.323Z,999.60
2017-12-13T03:36:20.312Z,999.56
2017-12-13T03:37:20.303Z,999.50
2017-12-13T03:38:20.293Z,999.47
2017-12-13T03:39:20.285Z,999.47
2017-12-13T03:40:20.277Z,999.44
2017-12-13T03:41:20.267Z,999.39
2017-12-13T03:42:20.256Z,999.41
2017-12-13T03:43:20.246Z,999.38
2017-12-13T03:44:20.238Z,999.41
2017-12-13T03:45:20.227Z,999.38
2017-12-13T03:46:20.220Z,999.39
2017-12-13T03:47:20.210Z,999.39
2017-12-13T03:48:20.200Z,999.34
2017-12-13T03:49:20.191Z,999.32
2017-12-13T03:50:20.181Z,999.34
2017-12-13T03:51:20.172Z,999.33
2017-12-13T03:52:20.163Z,999.33
2017-12-13T03:53:20.154Z,999.27
2017-12-13T03:54:20.144Z,999.24
2017-12-13T03:55:20.133Z,999.27
2017-12-13T03:56:20.131Z,999.24
2017-12-13T03:57:20.116Z,999.20
2017-12-13T03:58:20.106Z,999.24
2017-12-13T03:59:20.096Z,999.28
2017-12-13T04:00:20.087Z,999.34
2017-12-13T04:01:20.081Z,999.28
2017-12-13T04:02:20.068Z,999.26
2017-12-13T04:03:20.058Z,999.21
2017-12-13T04:04:20.050Z,999.15
2017-12-13T04:05:20.040Z,999.14
2017-12-13T04:06:20.032Z,999.15
2017-12-13T04:07:20.030Z,999.14
2017-12-13T04:08:20.012Z,999.10
2017-12-13T04:09:20.004Z,999.07
2017-12-13T04:10:19.994Z,999.07
2017-12-13T04:11:19.985Z,999.04
2017-12-13T04:12:19.976Z,999.05
2017-12-13T04:13:19.968Z,999.04
2017-12-13T04:14:19.958Z,998.99
2017-12-13T04:15:19.946Z,998.95
2017-12-13T04:16:19.939Z,998.95
2017-12-13T04:17:19.928Z,998.89
2017-12-13T04:18:19.919Z,998.86
2017-12-13T04:19:19.909Z,998.89
2017-12-13T04:20:19.899Z,998.86
2017-12-13T04:21:19.890Z,998.80
2017-12-13T04:22:19.880Z,998.79
2017-12-13T04:23:19.871Z,998.75
2017-12-13T04:24:19.862Z,998.76
2017-12-13T04:25:19.854Z,998.71
2017-12-13T04:26:19.844Z,998.77
2017-12-13T04:27:19.834Z,998.68
2017-12-13T04:28:19.830Z,998.66
2017-12-13T04:29:19.875Z,998.67
2017-12-13T04:30:19.808Z,998.62
2017-12-13T04:31:19.800Z,998.65
2017-12-13T04:32:19.835Z,998.65
2017-12-13T04:33:19.779Z,998.62
2017-12-13T04:34:19.768Z,998.56
2017-12-13T04:35:19.758Z,998.56
2017-12-13T04:36:19.752Z,998.53
2017-12-13T04:37:19.740Z,998.52
2017-12-13T04:38:19.731Z,998.51
2017-12-13T04:39:19.722Z,998.49
2017-12-13T04:40:19.713Z,998.48
2017-12-13T04:41:19.703Z,998.44
2017-12-13T04:42:19.695Z,998.41
2017-12-13T04:43:19.685Z,998.36
2017-12-13T04:44:19.676Z,998.33
2017-12-13T04:45:19.667Z,998.34
2017-12-13T04:46:19.657Z,998.36
2017-12-13T04:47:19.648Z,998.33
2017-12-13T04:48:19.672Z,998.33
2017-12-13T04:49:19.629Z,998.29
2017-12-13T04:50:19.621Z,998.35
2017-12-13T04:51:19.610Z,998.40
2017-12-13T04:52:19.600Z,998.35
2017-12-13T04:53:19.592Z,998.28
2017-12-13T04:54:19.583Z,998.19
2017-12-13T04:55:19.573Z,998.23
2017-12-13T04:56:19.564Z,998.21
2017-12-13T04:57:19.555Z,998.21
2017-12-13T04:58:19.546Z,998.20
2017-12-13T04:59:19.536Z,998.24
2017-12-13T05:00:19.528Z,998.18
2017-12-13T05:01:19.516Z,998.27
2017-12-13T05:02:19.508Z,998.18
2017-12-13T05:03:19.498Z,998.13
2017-12-13T05:04:19.490Z,998.13
2017-12-13T05:05:19.478Z,998.11
2017-12-13T05:06:19.470Z,998.02
2017-12-13T05:07:19.461Z,998.02
2017-12-13T05:08:19.452Z,998.02
2017-12-13T05:09:19.443Z,997.99
2017-12-13T05:10:19.434Z,997.96
2017-12-13T05:11:19.423Z,997.99
2017-12-13T05:12:19.414Z,997.99
2017-12-13T05:13:19.405Z,997.99
2017-12-13T05:14:19.396Z,997.98
2017-12-13T05:15:19.386Z,997.91
2017-12-13T05:16:19.377Z,997.95
2017-12-13T05:17:19.368Z,997.99
2017-12-13T05:18:19.358Z,997.95
2017-12-13T05:19:19.347Z,997.88
2017-12-13T05:20:19.339Z,997.84
2017-12-13T05:21:19.330Z,997.72
2017-12-13T05:22:19.322Z,997.75
2017-12-13T05:23:19.311Z,997.72
2017-12-13T05:24:19.301Z,997.71
2017-12-13T05:25:19.292Z,997.64
2017-12-13T05:26:19.283Z,997.72
2017-12-13T05:27:19.275Z,997.64
2017-12-13T05:28:19.264Z,997.68
2017-12-13T05:29:19.255Z,997.65
2017-12-13T05:30:19.246Z,997.64
2017-12-13T05:31:19.235Z,997.61
2017-12-13T05:32:19.225Z,997.63
2017-12-13T05:33:19.217Z,997.54
2017-12-13T05:34:19.208Z,997.55
2017-12-13T05:35:19.197Z,997.49
2017-12-13T05:36:19.188Z,997.49
2017-12-13T05:37:19.178Z,997.50
2017-12-13T05:38:19.169Z,997.45
2017-12-13T05:39:19.159Z,997.40
2017-12-13T05:40:19.150Z,997.40
2017-12-13T05:41:19.146Z,997.32
2017-12-13T05:42:19.132Z,997.31
2017-12-13T05:43:19.122Z,997.30
2017-12-13T05:44:19.113Z,997.29
2017-12-13T05:45:19.102Z,997.39
2017-12-13T05:46:19.094Z,997.37
2017-12-13T05:47:19.090Z,997.37
2017-12-13T05:48:19.075Z,997.31
2017-12-13T05:49:19.066Z,997.33
2017-12-13T05:50:19.055Z,997.19
2017-12-13T05:51:19.044Z,997.20
2017-12-13T05:52:19.039Z,997.28
2017-12-13T05:53:19.028Z,997.12
2017-12-13T05:54:19.019Z,997.13
2017-12-13T05:55:19.008Z,997.09
2017-12-13T05:56:18.998Z,997.07
2017-12-13T05:57:18.990Z,997.03
2017-12-13T05:58:18.980Z,997.07
2017-12-13T05:59:18.970Z,997.07
2017-12-13T06:00:18.961Z,997.08
2017-12-13T06:01:18.951Z,996.99
2017-12-13T06:02:18.942Z,997.04
2017-12-13T06:03:18.931Z,996.97
2017-12-13T06:04:18.923Z,996.98
2017-12-13T06:05:18.913Z,996.90
2017-12-13T06:06:18.904Z,996.91
2017-12-13T06:07:18.896Z,996.89
2017-12-13T06:08:18.886Z,996.89
2017-12-13T06:09:18.877Z,996.82
2017-12-13T06:10:18.867Z,996.87
2017-12-13T06:11:18.857Z,996.80
2017-12-13T06:12:18.847Z,996.84
2017-12-13T06:13:18.838Z,996.80
2017-12-13T06:14:18.829Z,996.84
2017-12-13T06:15:18.819Z,996.83
2017-12-13T06:16:18.808Z,996.76
2017-12-13T06:17:18.800Z,996.73
2017-12-13T06:18:18.791Z,996.72
2017-12-13T06:19:18.781Z,996.70
2017-12-13T06:20:18.771Z,996.65
2017-12-13T06:21:18.762Z,996.67
2017-12-13T06:22:18.753Z,996.64
2017-12-13T06:23:18.746Z,996.63
2017-12-13T06:24:18.736Z,996.57
2017-12-13T06:25:18.733Z,996.55
2017-12-13T06:26:18.715Z,996.53
2017-12-13T06:27:18.704Z,996.54
2017-12-13T06:28:18.695Z,996.55
2017-12-13T06:29:18.686Z,996.53
2017-12-13T06:30:18.679Z,996.50
2017-12-13T06:31:18.668Z,996.46
2017-12-13T06:32:18.659Z,996.44
2017-12-13T06:33:18.649Z,996.46
2017-12-13T06:34:18.640Z,996.38
2017-12-13T06:35:18.630Z,996.38
2017-12-13T06:36:18.621Z,996.38
2017-12-13T06:37:18.612Z,996.33
2017-12-13T06:38:18.601Z,996.36
2017-12-13T06:39:18.593Z,996.36
2017-12-13T06:40:18.583Z,996.32
2017-12-13T06:41:18.573Z,996.28
2017-12-13T06:42:18.565Z,996.27
2017-12-13T06:43:18.554Z,996.21
2017-12-13T06:44:18.546Z,996.28
2017-12-13T06:45:18.538Z,996.19
2017-12-13T06:46:18.530Z,996.15
2017-12-13T06:47:18.516Z,996.09
2017-12-13T06:48:18.508Z,996.10
2017-12-13T06:49:18.498Z,996.14
2017-12-13T06:50:18.490Z,996.11
2017-12-13T06:51:18.480Z,996.06
2017-12-13T06:52:18.471Z,996.10
2017-12-13T06:53:18.461Z,996.06
2017-12-13T06:54:18.452Z,996.07
2017-12-13T06:55:18.443Z,996.05
2017-12-13T06:56:18.434Z,996.04
2017-12-13T06:57:18.424Z,996.04
2017-12-13T06:58:18.415Z,996.06
2017-12-13T06:59:18.407Z,995.98
2017-12-13T07:00:18.396Z,995.96
2017-12-13T07:01:18.388Z,995.97
2017-12-13T07:02:18.379Z,995.96
2017-12-13T07:03:18.368Z,995.87
2017-12-13T07:04:18.361Z,995.85
2017-12-13T07:05:18.349Z,995.87
2017-12-13T07:06:18.340Z,995.83
2017-12-13T07:07:18.330Z,995.85
2017-12-13T07:08:18.322Z,995.80
2017-12-13T07:09:18.316Z,995.78
2017-12-13T07:10:18.305Z,995.76
2017-12-13T07:11:18.295Z,995.73
2017-12-13T07:12:18.286Z,995.66
2017-12-13T07:13:18.277Z,995.69
2017-12-13T07:14:18.268Z,995.63
2017-12-13T07:15:18.258Z,995.62
2017-12-13T07:16:18.250Z,995.63
2017-12-13T07:17:18.241Z,995.66
2017-12-13T07:18:18.231Z,995.68
2017-12-13T07:19:18.222Z,995.66
2017-12-13T07:20:18.213Z,995.57
2017-12-13T07:21:18.203Z,995.59
2017-12-13T07:22:18.194Z,995.65
2017-12-13T07:23:18.185Z,995.66
2017-12-13T07:24:18.177Z,995.54
2017-12-13T07:25:18.168Z,995.47
2017-12-13T07:26:18.160Z,995.48
2017-12-13T07:27:18.149Z,995.55
2017-12-13T07:28:18.143Z,995.54
2017-12-13T07:29:18.132Z,995.55
2017-12-13T07:30:18.124Z,995.49
2017-12-13T07:31:18.113Z,995.43
2017-12-13T07:32:18.105Z,995.44
2017-12-13T07:33:18.097Z,995.46
2017-12-13T07:34:18.089Z,995.46
2017-12-13T07:35:18.077Z,995.42
2017-12-13T07:36:18.070Z,995.48
2017-12-13T07:37:18.061Z,995.43
2017-12-13T07:38:18.052Z,995.46
2017-12-13T07:39:18.043Z,995.40
2017-12-13T07:40:18.034Z,995.38
2017-12-13T07:41:18.024Z,995.38
2017-12-13T07:42:18.017Z,995.33
2017-12-13T07:43:18.007Z,995.28
2017-12-13T07:44:17.998Z,995.30
2017-12-13T07:45:17.991Z,995.26
2017-12-13T07:46:17.981Z,995.35
2017-12-13T07:47:17.972Z,995.23
2017-12-13T07:48:17.963Z,995.18
2017-12-13T07:49:17.955Z,995.15
2017-12-13T07:50:17.947Z,995.10
2017-12-13T07:51:17.939Z,995.11
2017-12-13T07:52:17.929Z,995.01
2017-12-13T07:53:17.920Z,995.01
2017-12-13T07:54:17.913Z,995.11
2017-12-13T07:55:17.903Z,995.02
2017-12-13T07:56:17.895Z,994.99
2017-12-13T07:57:17.887Z,994.94
2017-12-13T07:58:17.878Z,994.97
2017-12-13T07:59:17.868Z,994.93
2017-12-13T08:00:17.861Z,994.89
2017-12-13T08:01:17.849Z,994.84
2017-12-13T08:02:17.843Z,994.95
2017-12-13T08:03:17.833Z,994.95
2017-12-13T08:04:17.825Z,994.97
2017-12-13T08:05:17.818Z,994.97
2017-12-13T08:06:17.810Z,994.91
2017-12-13T08:07:17.800Z,994.90
2017-12-13T08:08:17.792Z,994.88
2017-12-13T08:09:17.784Z,994.88
2017-12-13T08:10:17.775Z,994.83
2017-12-13T08:11:17.765Z,994.81
2017-12-13T08:12:17.757Z,994.75
2017-12-13T08:13:17.750Z,994.77
2017-12-13T08:14:17.741Z,994.72
2017-12-13T08:15:17.733Z,994.69
2017-12-13T08:16:17.727Z,994.69
2017-12-13T08:17:17.716Z,994.59
2017-12-13T08:18:17.708Z,994.57
2017-12-13T08:19:17.699Z,994.48
2017-12-13T08:20:17.689Z,994.43
2017-12-13T08:21:17.687Z,994.40
2017-12-13T08:22:17.673Z,994.46
2017-12-13T08:23:17.665Z,994.40
2017-12-13T08:24:17.657Z,994.36
2017-12-13T08:25:17.649Z,994.39
2017-12-13T08:26:17.641Z,994.32
2017-12-13T08:27:17.631Z,994.31
2017-12-13T08:28:17.624Z,994.32
2017-12-13T08:29:17.616Z,994.23
2017-12-13T08:30:17.607Z,994.19
2017-12-13T08:31:17.598Z,994.16
2017-12-13T08:32:17.591Z,994.18
2017-12-13T08:33:17.581Z,994.16
2017-12-13T08:34:17.573Z,994.14
2017-12-13T08:35:17.565Z,994.07
2017-12-13T08:36:17.557Z,994.07
2017-12-13T08:37:17.549Z,994.03
2017-12-13T08:38:17.541Z,993.91
2017-12-13T08:39:17.532Z,994.05
2017-12-13T08:40:17.524Z,993.98
2017-12-13T08:41:17.533Z,993.97
2017-12-13T08:42:17.506Z,993.95
2017-12-13T08:43:17.499Z,993.93
2017-12-13T08:44:17.491Z,993.90
2017-12-13T08:45:17.483Z,993.90
2017-12-13T08:46:17.474Z,993.88
2017-12-13T08:47:17.467Z,993.79
2017-12-13T08:48:17.459Z,993.78
2017-12-13T08:49:17.449Z,993.70
2017-12-13T08:50:17.441Z,993.77
2017-12-13T08:51:17.432Z,993.71
2017-12-13T08:52:17.423Z,993.71
2017-12-13T08:53:17.416Z,993.71
2017-12-13T08:54:17.410Z,993.71
2017-12-13T08:55:17.400Z,993.68
2017-12-13T08:56:17.392Z,993.73
2017-12-13T08:57:17.385Z,993.73
2017-12-13T08:58:17.376Z,993.63
2017-12-13T08:59:17.367Z,993.68
2017-12-13T09:00:17.359Z,993.60
2017-12-13T09:01:17.352Z,993.59
2017-12-13T09:02:17.345Z,993.59
2017-12-13T09:03:17.334Z,993.60
2017-12-13T09:04:17.326Z,993.63
2017-12-13T09:05:17.317Z,993.48
2017-12-13T09:06:17.310Z,993.25
2017-12-13T09:07:17.301Z,993.34
2017-12-13T09:08:17.294Z,993.41
2017-12-13T09:09:17.286Z,993.35
2017-12-13T09:10:17.278Z,993.38
2017-12-13T09:11:17.269Z,993.33
2017-12-13T09:12:17.260Z,993.29
2017-12-13T09:13:17.254Z,993.26
2017-12-13T09:14:17.245Z,993.20
2017-12-13T09:15:17.236Z,993.16
2017-12-13T09:16:17.227Z,993.22
2017-12-13T09:17:17.219Z,993.17
2017-12-13T09:18:17.212Z,993.13
2017-12-13T09:19:17.204Z,993.25
2017-12-13T09:20:17.195Z,993.12
2017-12-13T09:21:17.186Z,993.14
2017-12-13T09:22:17.178Z,993.09
2017-12-13T09:23:17.168Z,993.00
2017-12-13T09:24:17.162Z,993.10
2017-12-13T09:25:17.153Z,993.01
2017-12-13T09:26:17.146Z,992.98
2017-12-13T09:27:17.135Z,992.88
2017-12-13T09:28:17.128Z,992.97
2017-12-13T09:29:17.120Z,992.92
2017-12-13T09:30:17.111Z,992.90
2017-12-13T09:31:17.103Z,992.83
2017-12-13T09:32:17.095Z,992.84
2017-12-13T09:33:17.087Z,992.85
2017-12-13T09:34:17.078Z,992.84
2017-12-13T09:35:17.071Z,992.80
2017-12-13T09:36:17.062Z,992.76
2017-12-13T09:37:17.053Z,992.73
2017-12-13T09:38:17.045Z,992.73
2017-12-13T09:39:17.037Z,992.69
2017-12-13T09:40:17.030Z,992.64
2017-12-13T09:41:17.021Z,992.60
2017-12-13T09:42:17.013Z,992.52
2017-12-13T09:43:17.004Z,992.50
2017-12-13T09:44:16.995Z,992.52
2017-12-13T09:45:16.990Z,992.55
2017-12-13T09:46:16.979Z,992.50
2017-12-13T09:47:16.971Z,992.49
2017-12-13T09:48:16.962Z,992.45
2017-12-13T09:49:16.958Z,992.44
2017-12-13T09:50:16.946Z,992.46
2017-12-13T09:51:16.939Z,992.43
2017-12-13T09:52:16.930Z,992.39
2017-12-13T09:53:16.922Z,992.32
2017-12-13T09:54:16.915Z,992.34
2017-12-13T09:55:16.911Z,992.36
2017-12-13T09:56:16.898Z,992.32
2017-12-13T09:57:16.890Z,992.29
2017-12-13T09:58:16.882Z,992.24
2017-12-13T09:59:16.873Z,992.22
2017-12-13T10:00:16.865Z,992.21
2017-12-13T10:01:16.856Z,992.19
2017-12-13T10:02:16.849Z,992.23
2017-12-13T10:03:16.840Z,992.26
2017-12-13T10:04:16.836Z,992.18
2017-12-13T10:05:16.824Z,992.14
2017-12-13T10:06:16.817Z,992.07
2017-12-13T10:07:16.808Z,992.08
2017-12-13T10:08:16.800Z,992.07
2017-12-13T10:09:16.792Z,992.01
2017-12-13T10:10:16.784Z,991.99
2017-12-13T10:11:16.777Z,991.96
2017-12-13T10:12:16.766Z,991.93
2017-12-13T10:13:16.758Z,991.90
2017-12-13T10:14:16.751Z,991.80
2017-12-13T10:15:16.742Z,991.80
2017-12-13T10:16:16.735Z,991.80
2017-12-13T10:17:16.727Z,991.82
2017-12-13T10:18:16.718Z,991.76
2017-12-13T10:19:16.710Z,991.76
2017-12-13T10:20:16.701Z,991.69
2017-12-13T10:21:16.695Z,991.72
2017-12-13T10:22:16.685Z,991.74
2017-12-13T10:23:16.676Z,991.77
2017-12-13T10:24:16.670Z,991.62
2017-12-13T10:25:16.660Z,991.61
2017-12-13T10:26:16.656Z,991.62
2017-12-13T10:27:16.644Z,991.53
2017-12-13T10:28:16.638Z,991.50
2017-12-13T10:29:16.630Z,991.55
2017-12-13T10:30:16.621Z,991.43
2017-12-13T10:31:16.612Z,991.34
2017-12-13T10:32:16.605Z,991.34
2017-12-13T10:33:16.598Z,991.35
2017-12-13T10:34:16.589Z,991.37
2017-12-13T10:35:16.580Z,991.35
2017-12-13T10:36:16.571Z,991.30
2017-12-13T10:37:16.564Z,991.26
2017-12-13T10:38:16.556Z,991.22
2017-12-13T10:39:16.547Z,991.17
2017-12-13T10:40:16.540Z,991.08
2017-12-13T10:41:16.531Z,991.11
2017-12-13T10:42:16.523Z,991.09
2017-12-13T10:43:16.515Z,991.05
2017-12-13T10:44:16.508Z,990.96
2017-12-13T10:45:16.500Z,990.96
2017-12-13T10:46:16.492Z,990.95
2017-12-13T10:47:16.499Z,990.88
2017-12-13T10:48:16.473Z,990.82
2017-12-13T10:49:16.466Z,990.81
2017-12-13T10:50:16.456Z,990.85
2017-12-13T10:51:16.449Z,990.79
2017-12-13T10:52:16.441Z,990.70
2017-12-13T10:53:16.433Z,990.68
2017-12-13T10:54:16.426Z,990.73
2017-12-13T10:55:16.415Z,990.64
2017-12-13T10:56:16.408Z,990.67
2017-12-13T10:57:16.399Z,990.52
2017-12-13T10:58:16.392Z,990.58
2017-12-13T10:59:16.383Z,990.59
2017-12-13T11:00:16.375Z,990.52
2017-12-13T11:01:16.367Z,990.52
2017-12-13T11:02:16.358Z,990.54
2017-12-13T11:03:16.350Z,990.48
2017-12-13T11:04:16.343Z,990.48
2017-12-13T11:05:16.335Z,990.46
2017-12-13T11:06:16.325Z,990.40
2017-12-13T11:07:16.319Z,990.42
2017-12-13T11:08:16.308Z,990.34
2017-12-13T11:09:16.300Z,990.37
2017-12-13T11:10:16.292Z,990.25
2017-12-13T11:11:16.282Z,990.19
2017-12-13T11:12:16.276Z,990.20
2017-12-13T11:13:16.282Z,990.18
2017-12-13T11:14:16.260Z,990.16
2017-12-13T11:15:16.251Z,990.09
2017-12-13T11:16:16.242Z,990.05
2017-12-13T11:17:16.234Z,989.99
2017-12-13T11:18:16.226Z,990.04
2017-12-13T11:19:16.216Z,989.95
2017-12-13T11:20:16.209Z,989.88
2017-12-13T11:21:16.200Z,989.97
2017-12-13T11:22:16.193Z,989.92
2017-12-13T11:23:16.184Z,989.91
2017-12-13T11:24:16.175Z,989.85
2017-12-13T11:25:16.168Z,989.84
2017-12-13T11:26:16.160Z,989.80
2017-12-13T11:27:16.151Z,989.76
2017-12-13T11:28:16.141Z,989.67
2017-12-13T11:29:16.134Z,989.67
2017-12-13T11:30:16.126Z,989.64
2017-12-13T11:31:16.116Z,989.71
2017-12-13T11:32:16.108Z,989.62
2017-12-13T11:33:16.100Z,989.56
2017-12-13T11:34:16.092Z,989.62
2017-12-13T11:35:16.083Z,989.55
2017-12-13T11:36:16.075Z,989.45
2017-12-13T11:37:16.066Z,989.50
2017-12-13T11:38:16.058Z,989.44
2017-12-13T11:39:16.050Z,989.44
2017-12-13T11:40:16.047Z,989.51
2017-12-13T11:41:16.033Z,989.35
2017-12-13T11:42:16.023Z,989.31
2017-12-13T11:43:16.015Z,989.37
2017-12-13T11:44:16.008Z,989.32
2017-12-13T11:45:16.000Z,989.33
2017-12-13T11:46:15.997Z,989.28
2017-12-13T11:47:15.982Z,989.24
2017-12-13T11:48:15.973Z,989.29
2017-12-13T11:49:15.965Z,989.20
2017-12-13T11:50:15.957Z,989.27
2017-12-13T11:51:15.948Z,989.10
2017-12-13T11:52:15.940Z,989.05
2017-12-13T11:53:15.932Z,989.05
2017-12-13T11:54:15.922Z,989.04
2017-12-13T11:55:15.914Z,988.97
2017-12-13T11:56:15.906Z,988.85
2017-12-13T11:57:15.898Z,988.95
2017-12-13T11:58:15.888Z,988.90
2017-12-13T11:59:15.879Z,988.84
2017-12-13T12:00:15.877Z,988.76
2017-12-13T12:01:15.863Z,988.75
2017-12-13T12:02:15.854Z,988.75
2017-12-13T12:03:15.845Z,988.68
2017-12-13T12:04:15.845Z,988.68
2017-12-13T12:05:15.830Z,988.64
2017-12-13T12:06:15.823Z,988.52
2017-12-13T12:07:15.813Z,988.56
2017-12-13T12:08:15.807Z,988.46
2017-12-13T12:09:15.795Z,988.50
2017-12-13T12:10:15.787Z,988.40
2017-12-13T12:11:15.777Z,988.41
2017-12-13T12:12:15.770Z,988.35
2017-12-13T12:13:15.762Z,988.31
2017-12-13T12:14:15.754Z,988.33
2017-12-13T12:15:15.745Z,988.28
2017-12-13T12:16:15.736Z,988.28
2017-12-13T12:17:15.729Z,988.25
2017-12-13T12:18:15.720Z,988.20
2017-12-13T12:19:15.711Z,988.28
2017-12-13T12:20:15.708Z,988.15
2017-12-13T12:21:15.695Z,988.18
2017-12-13T12:22:15.687Z,988.10